sensor_id;sensor_type;location;lat;lon;timestamp;P1;durP1;ratioP1;P2;durP2;ratioP2
41229;SDS011;26964;50.428;19.218;2022-10-31T00:03:03;46.1;;;28.9;;
41229;SDS011;26964;50.428;19.218;2022-10-31T00:08:04;44.9;;;28.3;;
41229;SDS011;26964;50.428;19.218;2022-10-31T00:13:04;49.6;;;30.2;;
41229;SDS011;26964;50.428;19.218;2022-10-31T00:18:04;51.4;;;28.9;;
41229;SDS011;26964;50.428;19.218;2022-10-31T00:23:04;45.7;;;29.4;;
41229;SDS011;26964;50.428;19.218;2022-10-31T00:28:05;48.3;;;30.8;;
41229;SDS011;26964;50.428;19.218;2022-10-31T00:33:04;60.8;;;33.7;;
41229;SDS011;26964;50.428;19.218;2022-10-31T00:38:03;51.2;;;33.0;;
41229;SDS011;26964;50.428;19.218;2022-10-31T00:43:03;55.9;;;33.8;;
41229;SDS011;26964;50.428;19.218;2022-10-31T00:48:04;53.2;;;31.8;;
41229;SDS011;26964;50.428;19.218;2022-10-31T00:53:03;53.0;;;33.0;;
41229;SDS011;26964;50.428;19.218;2022-10-31T00:58:03;58.3;;;35.9;;
41229;SDS011;26964;50.428;19.218;2022-10-31T01:03:03;54.3;;;34.5;;
41229;SDS011;26964;50.428;19.218;2022-10-31T01:08:04;54.7;;;34.3;;
41229;SDS011;26964;50.428;19.218;2022-10-31T01:13:04;52.3;;;33.4;;
41229;SDS011;26964;50.428;19.218;2022-10-31T01:18:03;57.3;;;34.7;;
41229;SDS011;26964;50.428;19.218;2022-10-31T01:23:04;54.6;;;34.4;;
41229;SDS011;26964;50.428;19.218;2022-10-31T01:28:04;53.3;;;33.8;;
41229;SDS011;26964;50.428;19.218;2022-10-31T01:33:03;52.6;;;32.7;;
41229;SDS011;26964;50.428;19.218;2022-10-31T01:38:03;50.9;;;33.0;;
41229;SDS011;26964;50.428;19.218;2022-10-31T01:43:03;52.1;;;31.2;;
41229;SDS011;26964;50.428;19.218;2022-10-31T01:48:06;51.0;;;31.9;;
41229;SDS011;26964;50.428;19.218;2022-10-31T01:53:03;50.0;;;31.7;;
41229;SDS011;26964;50.428;19.218;2022-10-31T01:58:04;49.8;;;30.0;;
41229;SDS011;26964;50.428;19.218;2022-10-31T02:03:03;53.7;;;32.8;;
41229;SDS011;26964;50.428;19.218;2022-10-31T02:08:04;53.4;;;30.1;;
41229;SDS011;26964;50.428;19.218;2022-10-31T02:13:05;47.4;;;30.4;;
41229;SDS011;26964;50.428;19.218;2022-10-31T02:18:04;51.6;;;32.5;;
41229;SDS011;26964;50.428;19.218;2022-10-31T02:38:06;49.9;;;31.1;;
41229;SDS011;26964;50.428;19.218;2022-10-31T02:43:05;48.8;;;30.0;;
41229;SDS011;26964;50.428;19.218;2022-10-31T02:48:06;44.2;;;28.3;;
41229;SDS011;26964;50.428;19.218;2022-10-31T02:53:03;46.8;;;27.9;;
41229;SDS011;26964;50.428;19.218;2022-10-31T02:58:05;43.7;;;25.9;;
41229;SDS011;26964;50.428;19.218;2022-10-31T03:03:03;43.2;;;28.0;;
41229;SDS011;26964;50.428;19.218;2022-10-31T03:08:05;48.2;;;27.1;;
41229;SDS011;26964;50.428;19.218;2022-10-31T03:13:05;40.1;;;25.7;;
41229;SDS011;26964;50.428;19.218;2022-10-31T03:18:04;38.5;;;25.7;;
41229;SDS011;26964;50.428;19.218;2022-10-31T03:23:03;36.9;;;23.2;;
41229;SDS011;26964;50.428;19.218;2022-10-31T03:28:03;35.3;;;22.6;;
41229;SDS011;26964;50.428;19.218;2022-10-31T03:33:04;51.0;;;29.6;;
41229;SDS011;26964;50.428;19.218;2022-10-31T03:38:03;47.3;;;29.0;;
41229;SDS011;26964;50.428;19.218;2022-10-31T03:43:04;46.1;;;28.7;;
41229;SDS011;26964;50.428;19.218;2022-10-31T03:48:03;45.4;;;28.1;;
41229;SDS011;26964;50.428;19.218;2022-10-31T03:53:04;40.6;;;26.8;;
41229;SDS011;26964;50.428;19.218;2022-10-31T03:58:03;39.7;;;27.4;;
41229;SDS011;26964;50.428;19.218;2022-10-31T04:03:03;43.1;;;27.1;;
41229;SDS011;26964;50.428;19.218;2022-10-31T04:08:04;44.9;;;26.6;;
41229;SDS011;26964;50.428;19.218;2022-10-31T04:13:04;40.1;;;25.2;;
41229;SDS011;26964;50.428;19.218;2022-10-31T04:18:03;39.5;;;25.5;;
41229;SDS011;26964;50.428;19.218;2022-10-31T04:23:03;47.9;;;29.2;;
41229;SDS011;26964;50.428;19.218;2022-10-31T04:28:03;45.9;;;28.6;;
41229;SDS011;26964;50.428;19.218;2022-10-31T04:33:03;46.3;;;28.1;;
41229;SDS011;26964;50.428;19.218;2022-10-31T04:38:03;41.0;;;27.3;;
41229;SDS011;26964;50.428;19.218;2022-10-31T04:43:03;38.2;;;24.6;;
41229;SDS011;26964;50.428;19.218;2022-10-31T04:48:03;39.2;;;24.8;;
41229;SDS011;26964;50.428;19.218;2022-10-31T04:53:03;39.7;;;25.2;;
41229;SDS011;26964;50.428;19.218;2022-10-31T04:58:03;46.5;;;26.4;;
41229;SDS011;26964;50.428;19.218;2022-10-31T05:03:03;44.9;;;26.3;;
41229;SDS011;26964;50.428;19.218;2022-10-31T05:08:03;40.2;;;26.4;;
41229;SDS011;26964;50.428;19.218;2022-10-31T05:13:03;39.8;;;25.5;;
41229;SDS011;26964;50.428;19.218;2022-10-31T05:18:03;42.1;;;26.4;;
41229;SDS011;26964;50.428;19.218;2022-10-31T05:23:03;44.7;;;26.2;;
41229;SDS011;26964;50.428;19.218;2022-10-31T05:28:03;42.4;;;26.2;;
41229;SDS011;26964;50.428;19.218;2022-10-31T05:33:03;39.6;;;25.0;;
41229;SDS011;26964;50.428;19.218;2022-10-31T05:38:03;46.0;;;26.8;;
41229;SDS011;26964;50.428;19.218;2022-10-31T05:43:03;48.9;;;27.0;;
41229;SDS011;26964;50.428;19.218;2022-10-31T05:48:03;45.9;;;27.9;;
41229;SDS011;26964;50.428;19.218;2022-10-31T05:53:03;42.3;;;26.3;;
41229;SDS011;26964;50.428;19.218;2022-10-31T05:58:03;47.6;;;29.4;;
41229;SDS011;26964;50.428;19.218;2022-10-31T06:03:05;42.3;;;27.1;;
41229;SDS011;26964;50.428;19.218;2022-10-31T06:08:03;43.1;;;25.5;;
41229;SDS011;26964;50.428;19.218;2022-10-31T06:13:03;44.1;;;25.1;;
41229;SDS011;26964;50.428;19.218;2022-10-31T06:18:04;43.3;;;27.3;;
41229;SDS011;26964;50.428;19.218;2022-10-31T06:23:03;40.7;;;27.0;;
41229;SDS011;26964;50.428;19.218;2022-10-31T06:28:03;48.0;;;29.9;;
41229;SDS011;26964;50.428;19.218;2022-10-31T06:33:03;41.3;;;27.9;;
41229;SDS011;26964;50.428;19.218;2022-10-31T06:38:03;51.3;;;29.7;;
41229;SDS011;26964;50.428;19.218;2022-10-31T06:43:03;40.9;;;27.7;;
41229;SDS011;26964;50.428;19.218;2022-10-31T06:48:03;47.4;;;27.4;;
41229;SDS011;26964;50.428;19.218;2022-10-31T06:53:03;43.2;;;29.0;;
41229;SDS011;26964;50.428;19.218;2022-10-31T06:58:03;43.2;;;27.5;;
41229;SDS011;26964;50.428;19.218;2022-10-31T07:03:04;45.1;;;28.9;;
41229;SDS011;26964;50.428;19.218;2022-10-31T07:08:03;51.1;;;31.1;;
41229;SDS011;26964;50.428;19.218;2022-10-31T07:13:03;55.2;;;32.3;;
41229;SDS011;26964;50.428;19.218;2022-10-31T07:18:03;50.3;;;29.5;;
41229;SDS011;26964;50.428;19.218;2022-10-31T07:23:03;47.9;;;29.1;;
41229;SDS011;26964;50.428;19.218;2022-10-31T07:28:03;45.0;;;29.8;;
41229;SDS011;26964;50.428;19.218;2022-10-31T07:33:03;47.8;;;29.4;;
41229;SDS011;26964;50.428;19.218;2022-10-31T07:43:02;44.6;;;28.3;;
41229;SDS011;26964;50.428;19.218;2022-10-31T07:48:03;56.7;;;29.9;;
41229;SDS011;26964;50.428;19.218;2022-10-31T07:53:03;46.4;;;28.6;;
41229;SDS011;26964;50.428;19.218;2022-10-31T07:58:03;44.1;;;30.0;;
41229;SDS011;26964;50.428;19.218;2022-10-31T08:03:03;45.0;;;30.0;;
41229;SDS011;26964;50.428;19.218;2022-10-31T08:08:03;49.8;;;32.7;;
41229;SDS011;26964;50.428;19.218;2022-10-31T08:13:03;51.7;;;33.5;;
41229;SDS011;26964;50.428;19.218;2022-10-31T08:18:02;52.2;;;35.5;;
41229;SDS011;26964;50.428;19.218;2022-10-31T08:23:04;56.4;;;33.6;;
41229;SDS011;26964;50.428;19.218;2022-10-31T08:28:03;50.2;;;33.7;;
41229;SDS011;26964;50.428;19.218;2022-10-31T08:33:04;52.0;;;34.1;;
41229;SDS011;26964;50.428;19.218;2022-10-31T08:38:02;50.6;;;33.8;;
41229;SDS011;26964;50.428;19.218;2022-10-31T08:43:03;48.2;;;31.5;;
41229;SDS011;26964;50.428;19.218;2022-10-31T08:48:03;48.8;;;31.2;;
41229;SDS011;26964;50.428;19.218;2022-10-31T08:53:03;52.4;;;33.5;;
41229;SDS011;26964;50.428;19.218;2022-10-31T08:58:03;50.7;;;31.5;;
41229;SDS011;26964;50.428;19.218;2022-10-31T09:03:03;45.2;;;29.7;;
41229;SDS011;26964;50.428;19.218;2022-10-31T09:08:03;51.9;;;30.6;;
41229;SDS011;26964;50.428;19.218;2022-10-31T09:13:03;43.3;;;29.7;;
41229;SDS011;26964;50.428;19.218;2022-10-31T09:18:02;48.7;;;29.3;;
41229;SDS011;26964;50.428;19.218;2022-10-31T09:23:03;44.7;;;28.3;;
41229;SDS011;26964;50.428;19.218;2022-10-31T09:28:03;43.3;;;26.6;;
41229;SDS011;26964;50.428;19.218;2022-10-31T09:33:03;46.6;;;29.5;;
41229;SDS011;26964;50.428;19.218;2022-10-31T09:38:03;42.9;;;28.2;;
41229;SDS011;26964;50.428;19.218;2022-10-31T09:43:05;41.7;;;26.4;;
41229;SDS011;26964;50.428;19.218;2022-10-31T09:53:03;43.0;;;25.3;;
41229;SDS011;26964;50.428;19.218;2022-10-31T09:58:02;40.5;;;25.2;;
41229;SDS011;26964;50.428;19.218;2022-10-31T10:03:11;37.5;;;23.1;;
41229;SDS011;26964;50.428;19.218;2022-10-31T10:08:03;40.5;;;24.8;;
41229;SDS011;26964;50.428;19.218;2022-10-31T10:18:05;34.3;;;22.0;;
41229;SDS011;26964;50.428;19.218;2022-10-31T10:28:04;36.0;;;19.9;;
41229;SDS011;26964;50.428;19.218;2022-10-31T10:33:03;30.1;;;18.2;;
41229;SDS011;26964;50.428;19.218;2022-10-31T10:38:04;28.1;;;16.2;;
41229;SDS011;26964;50.428;19.218;2022-10-31T10:53:05;19.9;;;10.5;;
41229;SDS011;26964;50.428;19.218;2022-10-31T10:58:03;17.9;;;8.1;;
41229;SDS011;26964;50.428;19.218;2022-10-31T11:03:02;13.3;;;7.3;;
41229;SDS011;26964;50.428;19.218;2022-10-31T11:08:03;17.4;;;6.9;;
41229;SDS011;26964;50.428;19.218;2022-10-31T11:13:04;16.9;;;6.8;;
41229;SDS011;26964;50.428;19.218;2022-10-31T11:18:02;15.4;;;6.3;;
41229;SDS011;26964;50.428;19.218;2022-10-31T11:23:04;15.3;;;6.5;;
41229;SDS011;26964;50.428;19.218;2022-10-31T11:28:03;20.8;;;7.5;;
41229;SDS011;26964;50.428;19.218;2022-10-31T11:33:02;19.7;;;7.6;;
41229;SDS011;26964;50.428;19.218;2022-10-31T11:38:04;15.5;;;7.2;;
41229;SDS011;26964;50.428;19.218;2022-10-31T11:43:02;16.7;;;5.9;;
41229;SDS011;26964;50.428;19.218;2022-10-31T11:48:12;15.9;;;6.8;;
41229;SDS011;26964;50.428;19.218;2022-10-31T11:53:02;17.8;;;7.5;;
41229;SDS011;26964;50.428;19.218;2022-10-31T11:58:02;15.4;;;6.2;;
41229;SDS011;26964;50.428;19.218;2022-10-31T12:03:04;16.2;;;6.1;;
41229;SDS011;26964;50.428;19.218;2022-10-31T12:08:02;17.7;;;6.6;;
41229;SDS011;26964;50.428;19.218;2022-10-31T12:13:04;13.9;;;5.6;;
41229;SDS011;26964;50.428;19.218;2022-10-31T12:23:03;19.0;;;6.5;;
41229;SDS011;26964;50.428;19.218;2022-10-31T12:28:10;18.2;;;7.0;;
41229;SDS011;26964;50.428;19.218;2022-10-31T12:58:03;17.3;;;6.2;;
41229;SDS011;26964;50.428;19.218;2022-10-31T13:03:04;12.7;;;5.5;;
41229;SDS011;26964;50.428;19.218;2022-10-31T13:08:04;13.4;;;4.7;;
41229;SDS011;26964;50.428;19.218;2022-10-31T13:13:10;12.5;;;4.6;;
41229;SDS011;26964;50.428;19.218;2022-10-31T13:18:03;14.3;;;5.6;;
41229;SDS011;26964;50.428;19.218;2022-10-31T13:23:04;17.0;;;5.2;;
41229;SDS011;26964;50.428;19.218;2022-10-31T13:28:02;18.4;;;6.0;;
41229;SDS011;26964;50.428;19.218;2022-10-31T13:33:03;15.9;;;5.7;;
41229;SDS011;26964;50.428;19.218;2022-10-31T13:38:05;14.5;;;5.5;;
41229;SDS011;26964;50.428;19.218;2022-10-31T13:43:04;13.6;;;4.9;;
41229;SDS011;26964;50.428;19.218;2022-10-31T13:58:03;19.4;;;6.3;;
41229;SDS011;26964;50.428;19.218;2022-10-31T14:03:02;17.0;;;7.4;;
41229;SDS011;26964;50.428;19.218;2022-10-31T14:08:02;20.1;;;6.8;;
41229;SDS011;26964;50.428;19.218;2022-10-31T14:13:03;18.5;;;7.8;;
41229;SDS011;26964;50.428;19.218;2022-10-31T14:18:03;22.9;;;7.8;;
41229;SDS011;26964;50.428;19.218;2022-10-31T14:28:02;22.1;;;7.1;;
41229;SDS011;26964;50.428;19.218;2022-10-31T14:33:04;15.4;;;7.4;;
41229;SDS011;26964;50.428;19.218;2022-10-31T14:53:03;42.5;;;21.6;;
41229;SDS011;26964;50.428;19.218;2022-10-31T14:58:04;196.4;;;93.4;;
41229;SDS011;26964;50.428;19.218;2022-10-31T15:03:05;141.2;;;69.7;;
41229;SDS011;26964;50.428;19.218;2022-10-31T15:08:02;63.5;;;35.3;;
41229;SDS011;26964;50.428;19.218;2022-10-31T15:18:03;30.7;;;16.5;;
41229;SDS011;26964;50.428;19.218;2022-10-31T15:23:02;29.4;;;13.7;;
41229;SDS011;26964;50.428;19.218;2022-10-31T15:28:12;25.9;;;11.9;;
41229;SDS011;26964;50.428;19.218;2022-10-31T15:33:02;23.1;;;11.0;;
41229;SDS011;26964;50.428;19.218;2022-10-31T15:38:02;24.7;;;11.6;;
41229;SDS011;26964;50.428;19.218;2022-10-31T15:43:03;21.1;;;10.9;;
41229;SDS011;26964;50.428;19.218;2022-10-31T15:48:02;22.9;;;12.0;;
41229;SDS011;26964;50.428;19.218;2022-10-31T15:53:02;30.8;;;16.8;;
41229;SDS011;26964;50.428;19.218;2022-10-31T15:58:03;31.0;;;15.6;;
41229;SDS011;26964;50.428;19.218;2022-10-31T16:03:02;32.7;;;14.7;;
41229;SDS011;26964;50.428;19.218;2022-10-31T16:08:02;30.2;;;15.2;;
41229;SDS011;26964;50.428;19.218;2022-10-31T16:13:02;26.8;;;13.4;;
41229;SDS011;26964;50.428;19.218;2022-10-31T16:18:02;25.2;;;12.5;;
41229;SDS011;26964;50.428;19.218;2022-10-31T16:23:02;29.7;;;12.8;;
41229;SDS011;26964;50.428;19.218;2022-10-31T16:28:03;24.5;;;12.9;;
41229;SDS011;26964;50.428;19.218;2022-10-31T16:33:02;23.9;;;11.3;;
41229;SDS011;26964;50.428;19.218;2022-10-31T16:38:02;25.6;;;12.3;;
41229;SDS011;26964;50.428;19.218;2022-10-31T16:43:02;29.2;;;12.4;;
41229;SDS011;26964;50.428;19.218;2022-10-31T16:48:03;25.6;;;11.4;;
41229;SDS011;26964;50.428;19.218;2022-10-31T16:53:02;22.8;;;13.0;;
41229;SDS011;26964;50.428;19.218;2022-10-31T16:58:02;22.3;;;12.5;;
41229;SDS011;26964;50.428;19.218;2022-10-31T17:03:02;22.4;;;11.8;;
41229;SDS011;26964;50.428;19.218;2022-10-31T17:08:02;24.3;;;12.8;;
41229;SDS011;26964;50.428;19.218;2022-10-31T17:13:02;24.8;;;14.0;;
41229;SDS011;26964;50.428;19.218;2022-10-31T17:18:02;29.7;;;15.9;;
41229;SDS011;26964;50.428;19.218;2022-10-31T17:23:02;27.8;;;16.0;;
41229;SDS011;26964;50.428;19.218;2022-10-31T17:28:02;31.6;;;16.6;;
41229;SDS011;26964;50.428;19.218;2022-10-31T17:33:02;25.3;;;14.8;;
41229;SDS011;26964;50.428;19.218;2022-10-31T17:38:02;32.6;;;18.0;;
41229;SDS011;26964;50.428;19.218;2022-10-31T17:43:02;34.5;;;18.0;;
41229;SDS011;26964;50.428;19.218;2022-10-31T17:48:02;27.4;;;16.6;;
41229;SDS011;26964;50.428;19.218;2022-10-31T17:53:02;59.7;;;31.0;;
41229;SDS011;26964;50.428;19.218;2022-10-31T17:58:02;73.2;;;23.9;;
41229;SDS011;26964;50.428;19.218;2022-10-31T18:03:02;53.6;;;30.2;;
41229;SDS011;26964;50.428;19.218;2022-10-31T18:08:02;66.0;;;35.8;;
41229;SDS011;26964;50.428;19.218;2022-10-31T18:13:01;55.2;;;31.4;;
41229;SDS011;26964;50.428;19.218;2022-10-31T18:18:02;47.1;;;28.9;;
41229;SDS011;26964;50.428;19.218;2022-10-31T18:23:02;42.8;;;22.5;;
41229;SDS011;26964;50.428;19.218;2022-10-31T18:28:02;35.0;;;20.0;;
41229;SDS011;26964;50.428;19.218;2022-10-31T18:33:02;48.4;;;23.8;;
41229;SDS011;26964;50.428;19.218;2022-10-31T18:38:02;40.8;;;22.3;;
41229;SDS011;26964;50.428;19.218;2022-10-31T18:43:02;41.8;;;21.8;;
41229;SDS011;26964;50.428;19.218;2022-10-31T18:48:02;36.8;;;22.1;;
41229;SDS011;26964;50.428;19.218;2022-10-31T18:53:02;38.0;;;22.8;;
41229;SDS011;26964;50.428;19.218;2022-10-31T18:58:02;36.8;;;20.9;;
41229;SDS011;26964;50.428;19.218;2022-10-31T19:03:03;38.8;;;23.0;;
41229;SDS011;26964;50.428;19.218;2022-10-31T19:08:01;65.5;;;36.0;;
41229;SDS011;26964;50.428;19.218;2022-10-31T19:13:02;78.0;;;40.2;;
41229;SDS011;26964;50.428;19.218;2022-10-31T19:18:02;78.6;;;42.3;;
41229;SDS011;26964;50.428;19.218;2022-10-31T19:23:02;72.4;;;40.5;;
41229;SDS011;26964;50.428;19.218;2022-10-31T19:28:01;71.4;;;40.5;;
41229;SDS011;26964;50.428;19.218;2022-10-31T19:33:01;76.5;;;46.3;;
41229;SDS011;26964;50.428;19.218;2022-10-31T19:38:02;82.0;;;48.2;;
41229;SDS011;26964;50.428;19.218;2022-10-31T19:43:02;83.3;;;47.2;;
41229;SDS011;26964;50.428;19.218;2022-10-31T19:48:01;68.9;;;41.6;;
41229;SDS011;26964;50.428;19.218;2022-10-31T19:53:01;62.8;;;38.2;;
41229;SDS011;26964;50.428;19.218;2022-10-31T19:58:02;61.9;;;37.9;;
41229;SDS011;26964;50.428;19.218;2022-10-31T20:03:01;59.9;;;36.6;;
41229;SDS011;26964;50.428;19.218;2022-10-31T20:08:06;57.6;;;35.2;;
41229;SDS011;26964;50.428;19.218;2022-10-31T20:13:01;50.9;;;32.1;;
41229;SDS011;26964;50.428;19.218;2022-10-31T20:18:01;56.6;;;32.0;;
41229;SDS011;26964;50.428;19.218;2022-10-31T20:23:02;58.0;;;31.1;;
41229;SDS011;26964;50.428;19.218;2022-10-31T20:28:02;45.7;;;25.1;;
41229;SDS011;26964;50.428;19.218;2022-10-31T20:33:01;43.1;;;24.4;;
41229;SDS011;26964;50.428;19.218;2022-10-31T20:38:01;59.6;;;36.9;;
41229;SDS011;26964;50.428;19.218;2022-10-31T20:43:02;58.8;;;37.4;;
41229;SDS011;26964;50.428;19.218;2022-10-31T20:48:01;70.9;;;43.2;;
41229;SDS011;26964;50.428;19.218;2022-10-31T20:53:01;82.3;;;49.4;;
41229;SDS011;26964;50.428;19.218;2022-10-31T20:58:01;69.4;;;43.0;;
41229;SDS011;26964;50.428;19.218;2022-10-31T21:03:01;72.3;;;43.8;;
41229;SDS011;26964;50.428;19.218;2022-10-31T21:08:01;71.8;;;42.4;;
41229;SDS011;26964;50.428;19.218;2022-10-31T21:13:03;84.2;;;49.6;;
41229;SDS011;26964;50.428;19.218;2022-10-31T21:18:01;171.2;;;82.2;;
41229;SDS011;26964;50.428;19.218;2022-10-31T21:23:02;89.0;;;47.3;;
41229;SDS011;26964;50.428;19.218;2022-10-31T21:28:02;122.6;;;61.0;;
41229;SDS011;26964;50.428;19.218;2022-10-31T21:33:02;105.5;;;58.2;;
41229;SDS011;26964;50.428;19.218;2022-10-31T21:38:02;213.2;;;97.7;;
41229;SDS011;26964;50.428;19.218;2022-10-31T21:43:02;141.8;;;69.1;;
41229;SDS011;26964;50.428;19.218;2022-10-31T21:48:02;132.9;;;67.4;;
41229;SDS011;26964;50.428;19.218;2022-10-31T21:53:02;131.8;;;65.2;;
41229;SDS011;26964;50.428;19.218;2022-10-31T21:58:02;107.9;;;57.4;;
41229;SDS011;26964;50.428;19.218;2022-10-31T22:03:01;106.6;;;55.8;;
41229;SDS011;26964;50.428;19.218;2022-10-31T22:08:01;72.9;;;44.3;;
41229;SDS011;26964;50.428;19.218;2022-10-31T22:13:01;82.0;;;46.6;;
41229;SDS011;26964;50.428;19.218;2022-10-31T22:18:01;58.4;;;36.3;;
41229;SDS011;26964;50.428;19.218;2022-10-31T22:23:01;63.5;;;40.6;;
41229;SDS011;26964;50.428;19.218;2022-10-31T22:28:01;55.0;;;37.0;;
41229;SDS011;26964;50.428;19.218;2022-10-31T22:33:01;52.2;;;35.3;;
41229;SDS011;26964;50.428;19.218;2022-10-31T22:38:01;58.9;;;38.9;;
41229;SDS011;26964;50.428;19.218;2022-10-31T22:43:01;81.3;;;49.4;;
41229;SDS011;26964;50.428;19.218;2022-10-31T22:48:01;70.1;;;44.1;;
41229;SDS011;26964;50.428;19.218;2022-10-31T22:53:01;81.9;;;49.2;;
41229;SDS011;26964;50.428;19.218;2022-10-31T22:58:01;79.6;;;51.0;;
41229;SDS011;26964;50.428;19.218;2022-10-31T23:03:01;87.4;;;54.8;;
41229;SDS011;26964;50.428;19.218;2022-10-31T23:08:01;79.5;;;50.9;;
41229;SDS011;26964;50.428;19.218;2022-10-31T23:13:01;67.0;;;44.0;;
41229;SDS011;26964;50.428;19.218;2022-10-31T23:18:01;67.4;;;43.6;;
41229;SDS011;26964;50.428;19.218;2022-10-31T23:23:01;56.4;;;36.4;;
41229;SDS011;26964;50.428;19.218;2022-10-31T23:28:01;49.8;;;33.5;;
41229;SDS011;26964;50.428;19.218;2022-10-31T23:33:01;53.4;;;35.0;;
41229;SDS011;26964;50.428;19.218;2022-10-31T23:38:01;51.1;;;32.4;;
41229;SDS011;26964;50.428;19.218;2022-10-31T23:43:01;49.7;;;32.7;;
41229;SDS011;26964;50.428;19.218;2022-10-31T23:48:01;52.5;;;34.5;;
41229;SDS011;26964;50.428;19.218;2022-10-31T23:53:01;46.6;;;33.8;;
41229;SDS011;26964;50.428;19.218;2022-10-31T23:58:01;48.1;;;33.2;;
